sensor_id;sensor_type;location;lat;lon;timestamp;P1;durP1;ratioP1;P2;durP2;ratioP2
27863;SDS011;15980;51.092;13.916;2023-05-07T00:01:32;43.88;;;19.52;;
27863;SDS011;15980;51.092;13.916;2023-05-07T00:11:33;43.90;;;17.88;;
27863;SDS011;15980;51.092;13.916;2023-05-07T00:21:34;42.95;;;17.80;;
27863;SDS011;15980;51.092;13.916;2023-05-07T00:31:34;33.15;;;16.90;;
27863;SDS011;15980;51.092;13.916;2023-05-07T00:41:34;36.50;;;16.08;;
27863;SDS011;15980;51.092;13.916;2023-05-07T00:51:34;34.03;;;16.67;;
27863;SDS011;15980;51.092;13.916;2023-05-07T01:01:35;32.75;;;16.98;;
27863;SDS011;15980;51.092;13.916;2023-05-07T01:11:35;34.42;;;17.75;;
27863;SDS011;15980;51.092;13.916;2023-05-07T01:21:35;33.63;;;18.20;;
27863;SDS011;15980;51.092;13.916;2023-05-07T01:31:38;33.65;;;17.52;;
27863;SDS011;15980;51.092;13.916;2023-05-07T01:41:42;30.60;;;16.77;;
27863;SDS011;15980;51.092;13.916;2023-05-07T01:51:43;29.95;;;15.80;;
27863;SDS011;15980;51.092;13.916;2023-05-07T02:01:43;32.78;;;15.38;;
27863;SDS011;15980;51.092;13.916;2023-05-07T02:11:43;29.15;;;15.15;;
27863;SDS011;15980;51.092;13.916;2023-05-07T02:21:44;34.78;;;15.50;;
27863;SDS011;15980;51.092;13.916;2023-05-07T02:31:44;37.13;;;16.50;;
27863;SDS011;15980;51.092;13.916;2023-05-07T02:41:44;35.03;;;15.55;;
27863;SDS011;15980;51.092;13.916;2023-05-07T02:51:45;38.03;;;17.40;;
27863;SDS011;15980;51.092;13.916;2023-05-07T03:01:45;36.22;;;15.35;;
27863;SDS011;15980;51.092;13.916;2023-05-07T03:11:45;36.28;;;15.63;;
27863;SDS011;15980;51.092;13.916;2023-05-07T03:21:45;39.90;;;15.85;;
27863;SDS011;15980;51.092;13.916;2023-05-07T03:31:46;57.83;;;17.95;;
27863;SDS011;15980;51.092;13.916;2023-05-07T03:41:46;49.17;;;18.20;;
27863;SDS011;15980;51.092;13.916;2023-05-07T03:51:47;42.55;;;18.23;;
27863;SDS011;15980;51.092;13.916;2023-05-07T04:01:47;41.22;;;17.90;;
27863;SDS011;15980;51.092;13.916;2023-05-07T04:11:48;43.70;;;17.63;;
27863;SDS011;15980;51.092;13.916;2023-05-07T04:21:48;56.72;;;19.85;;
27863;SDS011;15980;51.092;13.916;2023-05-07T04:31:48;48.72;;;17.77;;
27863;SDS011;15980;51.092;13.916;2023-05-07T04:41:48;39.70;;;17.08;;
27863;SDS011;15980;51.092;13.916;2023-05-07T04:51:49;38.08;;;17.13;;
27863;SDS011;15980;51.092;13.916;2023-05-07T05:01:49;32.65;;;14.27;;
27863;SDS011;15980;51.092;13.916;2023-05-07T05:11:49;25.95;;;13.63;;
27863;SDS011;15980;51.092;13.916;2023-05-07T05:21:50;26.92;;;12.60;;
27863;SDS011;15980;51.092;13.916;2023-05-07T05:31:50;23.88;;;11.50;;
27863;SDS011;15980;51.092;13.916;2023-05-07T05:41:50;29.63;;;12.18;;
27863;SDS011;15980;51.092;13.916;2023-05-07T05:51:50;28.88;;;12.15;;
27863;SDS011;15980;51.092;13.916;2023-05-07T06:01:51;31.80;;;13.85;;
27863;SDS011;15980;51.092;13.916;2023-05-07T06:11:52;27.70;;;12.75;;
27863;SDS011;15980;51.092;13.916;2023-05-07T06:21:53;29.05;;;13.77;;
27863;SDS011;15980;51.092;13.916;2023-05-07T06:31:53;25.90;;;11.70;;
27863;SDS011;15980;51.092;13.916;2023-05-07T06:41:53;18.75;;;9.18;;
27863;SDS011;15980;51.092;13.916;2023-05-07T06:51:54;17.58;;;9.73;;
27863;SDS011;15980;51.092;13.916;2023-05-07T07:01:54;10.85;;;6.68;;
27863;SDS011;15980;51.092;13.916;2023-05-07T07:11:54;11.15;;;6.10;;
27863;SDS011;15980;51.092;13.916;2023-05-07T07:21:55;11.32;;;6.38;;
27863;SDS011;15980;51.092;13.916;2023-05-07T07:31:55;8.93;;;5.57;;
27863;SDS011;15980;51.092;13.916;2023-05-07T07:41:56;9.57;;;5.28;;
27863;SDS011;15980;51.092;13.916;2023-05-07T07:51:56;8.70;;;5.45;;
27863;SDS011;15980;51.092;13.916;2023-05-07T08:01:56;10.75;;;7.30;;
27863;SDS011;15980;51.092;13.916;2023-05-07T08:11:57;9.27;;;6.40;;
27863;SDS011;15980;51.092;13.916;2023-05-07T08:21:57;14.02;;;8.38;;
27863;SDS011;15980;51.092;13.916;2023-05-07T08:31:57;23.83;;;12.45;;
27863;SDS011;15980;51.092;13.916;2023-05-07T08:41:58;12.75;;;8.13;;
27863;SDS011;15980;51.092;13.916;2023-05-07T08:52:00;11.67;;;6.87;;
27863;SDS011;15980;51.092;13.916;2023-05-07T09:02:01;12.15;;;6.43;;
27863;SDS011;15980;51.092;13.916;2023-05-07T09:12:01;13.50;;;7.63;;
27863;SDS011;15980;51.092;13.916;2023-05-07T09:22:02;12.48;;;8.02;;
27863;SDS011;15980;51.092;13.916;2023-05-07T09:32:04;15.90;;;10.43;;
27863;SDS011;15980;51.092;13.916;2023-05-07T09:42:05;15.57;;;8.87;;
27863;SDS011;15980;51.092;13.916;2023-05-07T09:52:06;13.00;;;7.53;;
27863;SDS011;15980;51.092;13.916;2023-05-07T10:02:06;11.98;;;7.72;;
27863;SDS011;15980;51.092;13.916;2023-05-07T10:12:09;9.73;;;7.18;;
27863;SDS011;15980;51.092;13.916;2023-05-07T10:22:10;13.65;;;7.78;;
27863;SDS011;15980;51.092;13.916;2023-05-07T10:32:19;9.95;;;6.50;;
27863;SDS011;15980;51.092;13.916;2023-05-07T10:42:22;9.77;;;6.22;;
27863;SDS011;15980;51.092;13.916;2023-05-07T10:52:23;8.38;;;5.53;;
27863;SDS011;15980;51.092;13.916;2023-05-07T11:02:42;9.38;;;5.50;;
27863;SDS011;15980;51.092;13.916;2023-05-07T11:12:59;8.25;;;6.20;;
27863;SDS011;15980;51.092;13.916;2023-05-07T11:23:00;9.45;;;5.93;;
27863;SDS011;15980;51.092;13.916;2023-05-07T11:33:00;7.10;;;5.28;;
27863;SDS011;15980;51.092;13.916;2023-05-07T11:43:09;10.40;;;6.00;;
27863;SDS011;15980;51.092;13.916;2023-05-07T11:53:10;8.50;;;6.47;;
27863;SDS011;15980;51.092;13.916;2023-05-07T12:03:11;8.35;;;5.95;;
27863;SDS011;15980;51.092;13.916;2023-05-07T12:13:21;9.30;;;5.63;;
27863;SDS011;15980;51.092;13.916;2023-05-07T12:23:22;11.13;;;6.20;;
27863;SDS011;15980;51.092;13.916;2023-05-07T12:33:24;9.10;;;6.20;;
27863;SDS011;15980;51.092;13.916;2023-05-07T12:43:27;7.57;;;5.50;;
27863;SDS011;15980;51.092;13.916;2023-05-07T12:53:28;5.50;;;4.50;;
27863;SDS011;15980;51.092;13.916;2023-05-07T13:03:32;6.43;;;4.85;;
27863;SDS011;15980;51.092;13.916;2023-05-07T13:13:34;6.68;;;4.80;;
27863;SDS011;15980;51.092;13.916;2023-05-07T13:23:35;6.80;;;4.50;;
27863;SDS011;15980;51.092;13.916;2023-05-07T13:33:36;5.32;;;4.60;;
27863;SDS011;15980;51.092;13.916;2023-05-07T13:43:36;5.32;;;3.58;;
27863;SDS011;15980;51.092;13.916;2023-05-07T13:53:36;5.43;;;4.22;;
27863;SDS011;15980;51.092;13.916;2023-05-07T14:03:36;5.40;;;3.95;;
27863;SDS011;15980;51.092;13.916;2023-05-07T14:13:37;5.43;;;3.67;;
27863;SDS011;15980;51.092;13.916;2023-05-07T14:23:37;6.05;;;4.20;;
27863;SDS011;15980;51.092;13.916;2023-05-07T14:33:37;7.90;;;5.13;;
27863;SDS011;15980;51.092;13.916;2023-05-07T14:43:37;5.88;;;4.40;;
27863;SDS011;15980;51.092;13.916;2023-05-07T14:53:38;5.63;;;4.43;;
27863;SDS011;15980;51.092;13.916;2023-05-07T15:03:39;8.77;;;5.32;;
27863;SDS011;15980;51.092;13.916;2023-05-07T15:13:39;7.13;;;4.85;;
27863;SDS011;15980;51.092;13.916;2023-05-07T15:33:42;7.82;;;5.75;;
27863;SDS011;15980;51.092;13.916;2023-05-07T15:43:46;11.43;;;6.13;;
27863;SDS011;15980;51.092;13.916;2023-05-07T15:53:49;10.18;;;5.72;;
27863;SDS011;15980;51.092;13.916;2023-05-07T16:03:49;8.90;;;6.13;;
27863;SDS011;15980;51.092;13.916;2023-05-07T16:13:49;7.28;;;5.80;;
27863;SDS011;15980;51.092;13.916;2023-05-07T16:23:49;10.77;;;6.32;;
27863;SDS011;15980;51.092;13.916;2023-05-07T16:33:50;10.05;;;5.90;;
27863;SDS011;15980;51.092;13.916;2023-05-07T16:43:50;12.00;;;6.00;;
27863;SDS011;15980;51.092;13.916;2023-05-07T16:53:50;9.30;;;5.90;;
27863;SDS011;15980;51.092;13.916;2023-05-07T17:03:51;8.93;;;6.13;;
27863;SDS011;15980;51.092;13.916;2023-05-07T17:13:51;8.32;;;6.00;;
27863;SDS011;15980;51.092;13.916;2023-05-07T17:23:51;8.75;;;5.32;;
27863;SDS011;15980;51.092;13.916;2023-05-07T17:33:51;10.80;;;6.93;;
27863;SDS011;15980;51.092;13.916;2023-05-07T17:43:52;9.52;;;6.43;;
27863;SDS011;15980;51.092;13.916;2023-05-07T17:53:52;10.82;;;7.32;;
27863;SDS011;15980;51.092;13.916;2023-05-07T18:03:52;8.95;;;6.30;;
27863;SDS011;15980;51.092;13.916;2023-05-07T18:13:53;11.43;;;7.00;;
27863;SDS011;15980;51.092;13.916;2023-05-07T18:23:53;13.10;;;6.93;;
27863;SDS011;15980;51.092;13.916;2023-05-07T18:33:53;11.32;;;7.60;;
27863;SDS011;15980;51.092;13.916;2023-05-07T18:43:54;13.05;;;8.57;;
27863;SDS011;15980;51.092;13.916;2023-05-07T18:53:54;12.70;;;8.48;;
27863;SDS011;15980;51.092;13.916;2023-05-07T19:03:54;13.27;;;8.02;;
27863;SDS011;15980;51.092;13.916;2023-05-07T19:13:55;13.55;;;8.60;;
27863;SDS011;15980;51.092;13.916;2023-05-07T19:23:55;14.50;;;9.25;;
27863;SDS011;15980;51.092;13.916;2023-05-07T19:33:55;14.65;;;9.07;;
27863;SDS011;15980;51.092;13.916;2023-05-07T19:43:56;12.43;;;8.65;;
27863;SDS011;15980;51.092;13.916;2023-05-07T19:53:56;13.10;;;8.23;;
27863;SDS011;15980;51.092;13.916;2023-05-07T20:03:57;12.15;;;8.05;;
27863;SDS011;15980;51.092;13.916;2023-05-07T20:13:58;11.50;;;7.35;;
27863;SDS011;15980;51.092;13.916;2023-05-07T20:23:58;10.90;;;6.72;;
27863;SDS011;15980;51.092;13.916;2023-05-07T20:33:59;13.10;;;7.55;;
27863;SDS011;15980;51.092;13.916;2023-05-07T20:43:59;9.82;;;6.15;;
27863;SDS011;15980;51.092;13.916;2023-05-07T20:53:59;11.63;;;6.13;;
27863;SDS011;15980;51.092;13.916;2023-05-07T21:04:02;12.25;;;6.07;;
27863;SDS011;15980;51.092;13.916;2023-05-07T21:14:03;12.15;;;6.18;;
27863;SDS011;15980;51.092;13.916;2023-05-07T21:24:03;11.50;;;6.43;;
27863;SDS011;15980;51.092;13.916;2023-05-07T21:34:04;9.93;;;6.10;;
27863;SDS011;15980;51.092;13.916;2023-05-07T21:44:05;11.30;;;6.35;;
27863;SDS011;15980;51.092;13.916;2023-05-07T21:54:05;14.68;;;6.65;;
27863;SDS011;15980;51.092;13.916;2023-05-07T22:04:05;11.93;;;6.55;;
27863;SDS011;15980;51.092;13.916;2023-05-07T22:14:05;9.93;;;6.15;;
27863;SDS011;15980;51.092;13.916;2023-05-07T22:24:06;11.65;;;6.78;;
27863;SDS011;15980;51.092;13.916;2023-05-07T22:34:06;12.23;;;6.97;;
27863;SDS011;15980;51.092;13.916;2023-05-07T22:44:06;11.73;;;6.97;;
27863;SDS011;15980;51.092;13.916;2023-05-07T22:54:07;10.82;;;6.80;;
27863;SDS011;15980;51.092;13.916;2023-05-07T23:04:07;12.55;;;7.65;;
27863;SDS011;15980;51.092;13.916;2023-05-07T23:14:07;11.85;;;7.85;;
27863;SDS011;15980;51.092;13.916;2023-05-07T23:24:07;13.63;;;7.28;;
27863;SDS011;15980;51.092;13.916;2023-05-07T23:34:08;10.52;;;7.03;;
27863;SDS011;15980;51.092;13.916;2023-05-07T23:44:08;13.07;;;7.82;;
27863;SDS011;15980;51.092;13.916;2023-05-07T23:54:08;12.05;;;7.13;;
